Retour à l'actu

LFPG

METAR

LFPG 181700Z 08008KT 9999 FEW040 BKN260 22/12 Q1012 NOSIG

TAF

LFPG 181700Z
  • | 1818/1924 11008KT 9999 FEW045 TX21/1914Z TN15/1904Z
  • | PROB30 TEMPO 1819/1823 4000 SHRA SCT040TCU
  • | TEMPO 1914/1922 FEW040TCU